📊 Raw Sensor Data
Showing records 39101 to 39125 of 84,941 total
| ID | Distance (ft) | Battery V | Battery A | Int Temp (°F) | Int Humid (%) | Ext Temp (°F) | Solar V | RSSI | SNR | Time Stamp |
|---|---|---|---|---|---|---|---|---|---|---|
| 45853 | 15.4 | 3.90 | -5 | 59 | 46 | 61 | 0.10 | -69 | 8 | 07/10/2025 12:45 AM |
| 45852 | 15.4 | 3.90 | -5 | 60 | 46 | 60 | 0.00 | -70 | 8 | 07/10/2025 12:30 AM |
| 45851 | 15.4 | 3.90 | -5 | 61 | 45 | 63 | 0.00 | -69 | 8 | 07/10/2025 12:15 AM |
| 45850 | 15.4 | 3.90 | -5 | 62 | 45 | 64 | 0.00 | -71 | 8 | 07/10/2025 12:00 AM |
| 45849 | 15.3 | 3.96 | -5 | 63 | 46 | 65 | 0.00 | -69 | 8 | 07/09/2025 11:45 PM |
| 45848 | 15.4 | 3.96 | -5 | 63 | 46 | 65 | 0.00 | -70 | 8 | 07/09/2025 11:30 PM |
| 45847 | 15.4 | 3.96 | -5 | 63 | 46 | 65 | 0.00 | -70 | 8 | 07/09/2025 11:15 PM |
| 45846 | 15.4 | 3.90 | -5 | 64 | 46 | 66 | 0.00 | -69 | 8 | 07/09/2025 11:00 PM |
| 45845 | 15.4 | 3.90 | -5 | 65 | 47 | 66 | 0.00 | -69 | 8 | 07/09/2025 10:45 PM |
| 45844 | 15.4 | 3.96 | -5 | 65 | 47 | 66 | 0.00 | -71 | 8 | 07/09/2025 10:30 PM |
| 45843 | 15.4 | 3.90 | -5 | 66 | 48 | 67 | 0.00 | -71 | 8 | 07/09/2025 10:15 PM |
| 45842 | 15.3 | 3.90 | -5 | 67 | 49 | 68 | 0.00 | -71 | 8 | 07/09/2025 10:00 PM |
| 45841 | 15.4 | 3.90 | -5 | 67 | 50 | 68 | 0.00 | -71 | 8 | 07/09/2025 09:45 PM |
| 45840 | 15.3 | 3.96 | -5 | 68 | 51 | 68 | 0.00 | -73 | 8 | 07/09/2025 09:30 PM |
| 45839 | 15.4 | 3.96 | -5 | 69 | 52 | 70 | 0.00 | -74 | 7 | 07/09/2025 09:15 PM |
| 45838 | 15.4 | 3.91 | -5 | 71 | 54 | 70 | 0.00 | -72 | 8 | 07/09/2025 09:00 PM |
| 45837 | 15.4 | 3.91 | -5 | 73 | 56 | 72 | 0.90 | -73 | 8 | 07/09/2025 08:45 PM |
| 45836 | 15.4 | 3.90 | -10 | 77 | 57 | 73 | 1.90 | -72 | 9 | 07/09/2025 08:30 PM |
| 45835 | 15.5 | 3.97 | 0 | 83 | 55 | 77 | 4.50 | -71 | 8 | 07/09/2025 08:15 PM |
| 45834 | 15.5 | 3.98 | 0 | 87 | 54 | 82 | 4.50 | -72 | 8 | 07/09/2025 08:00 PM |
| 45833 | 15.6 | 3.99 | 6 | 90 | 54 | 83 | 4.60 | -72 | 8 | 07/09/2025 07:45 PM |
| 45832 | 15.6 | 4.00 | 5 | 96 | 53 | 87 | 4.60 | -74 | 7 | 07/09/2025 07:15 PM |
| 45831 | 15.6 | 3.98 | 18 | 99 | 53 | 89 | 4.60 | -72 | 6 | 07/09/2025 07:00 PM |
| 45830 | 15.6 | 4.02 | 25 | 102 | 52 | 90 | 4.60 | -72 | 7 | 07/09/2025 06:45 PM |
| 45829 | 15.6 | 3.95 | 0 | 102 | 51 | 95 | 5.10 | -73 | 8 | 07/09/2025 06:30 PM |